Time;durP1;ratioP1;P1;durP2;ratioP2;P2;SDS_P1;SDS_P2;PMS_P1;PMS_P2;Temp;Humidity;BMP_temperature;BMP_pressure;BME280_temperature;BME280_humidity;BME280_pressure;Samples;Min_cycle;Max_cycle;Signal;HPM_P1;HPM_P2
2022/05/02 00:00:38;;;;;;;24.17;18.63;;;;;;;7.08;71.34;100003.78;5070961;28;20040;-68
2022/05/02 00:03:04;;;;;;;28.65;21.92;;;;;;;7.07;71.93;99996.84;5067277;28;20045;-71
2022/05/02 00:05:30;;;;;;;28.67;21.40;;;;;;;7.08;71.83;99994.16;5076001;28;20600;-68
2022/05/02 00:07:55;;;;;;;23.98;19.10;;;;;;;7.14;71.64;99997.50;5075363;28;20040;-69
2022/05/02 00:10:21;;;;;;;26.10;19.83;;;;;;;7.18;71.53;99992.09;5084598;28;20041;-68
2022/05/02 00:12:49;;;;;;;22.90;19.08;;;;;;;7.21;71.18;99994.66;5067714;28;20484;-69
2022/05/02 00:15:14;;;;;;;26.92;20.27;;;;;;;7.23;71.07;99989.34;5069820;28;20503;-67
2022/05/02 00:17:58;;;;;;;24.48;21.00;;;;;;;7.20;70.96;99992.06;5068724;28;20036;-69
2022/05/02 00:20:29;;;;;;;25.88;19.70;;;;;;;7.17;70.84;99989.56;5068914;28;20064;-69
2022/05/02 00:22:56;;;;;;;29.23;23.63;;;;;;;7.15;71.38;99988.75;5076473;28;20053;-68
2022/05/02 00:25:22;;;;;;;32.15;21.48;;;;;;;7.06;71.53;99985.50;5064297;28;20454;-69
2022/05/02 00:27:48;;;;;;;30.58;23.23;;;;;;;7.06;71.39;99980.28;5073393;28;20056;-69
2022/05/02 00:30:15;;;;;;;31.42;22.15;;;;;;;7.06;71.70;99982.91;5077891;28;20056;-69
2022/05/02 00:32:41;;;;;;;32.70;24.10;;;;;;;7.02;71.63;99978.63;5077929;28;20096;-69
2022/05/02 00:35:08;;;;;;;33.67;22.83;;;;;;;6.90;72.37;99981.66;5074104;28;20491;-68
2022/05/02 00:37:33;;;;;;;27.98;22.45;;;;;;;6.85;72.82;99971.31;5077725;28;20458;-68
2022/05/02 00:39:59;;;;;;;25.67;21.05;;;;;;;6.83;72.65;99969.63;5081626;28;20097;-68
2022/05/02 00:42:24;;;;;;;29.60;22.42;;;;;;;6.83;72.78;99972.25;5065917;28;20422;-69
2022/05/02 00:44:50;;;;;;;31.67;23.13;;;;;;;6.83;72.69;99969.63;5088106;28;20115;-70
2022/05/02 00:47:20;;;;;;;27.63;24.08;;;;;;;6.79;72.58;99962.75;5075523;28;20044;-68
2022/05/02 00:49:45;;;;;;;29.70;21.63;;;;;;;6.76;72.83;99970.72;5076440;28;20039;-68
2022/05/02 00:52:11;;;;;;;30.13;22.73;;;;;;;6.73;72.93;99971.69;5075869;28;20037;-69
2022/05/02 00:54:39;;;;;;;29.92;24.17;;;;;;;6.59;73.60;99964.22;5076007;28;20476;-68
2022/05/02 00:57:07;;;;;;;31.27;22.73;;;;;;;6.56;73.51;99966.09;5077407;28;20033;-68
2022/05/02 00:59:35;;;;;;;30.17;22.00;;;;;;;6.52;73.90;99961.84;5076532;28;20071;-68
2022/05/02 01:02:01;;;;;;;30.48;21.50;;;;;;;6.48;73.88;99962.84;5059669;28;20076;-69
2022/05/02 01:04:26;;;;;;;27.35;21.90;;;;;;;6.51;73.77;99962.75;5080229;28;20029;-69
2022/05/02 01:07:18;;;;;;;31.35;23.67;;;;;;;6.50;73.79;99959.28;5080952;28;20063;-69
2022/05/02 01:09:46;;;;;;;27.75;22.27;;;;;;;6.51;73.86;99958.38;5085795;28;20028;-68
2022/05/02 01:12:16;;;;;;;27.17;22.20;;;;;;;6.48;73.80;99966.31;5085457;28;20059;-69
2022/05/02 01:14:44;;;;;;;32.85;25.08;;;;;;;6.46;74.06;99960.28;5084431;28;20040;-69
2022/05/02 01:17:10;;;;;;;33.47;24.67;;;;;;;6.45;74.22;99958.56;5082496;28;20052;-69
2022/05/02 01:19:36;;;;;;;29.38;22.45;;;;;;;6.45;74.33;99961.19;5071444;28;20477;-69
2022/05/02 01:22:03;;;;;;;26.75;22.42;;;;;;;6.44;73.86;99960.31;5077439;28;20039;-70
2022/05/02 01:24:36;;;;;;;28.60;22.77;;;;;;;6.43;74.18;99955.13;5077999;28;20123;-68
2022/05/02 01:27:02;;;;;;;30.08;22.30;;;;;;;6.40;74.49;99957.84;5077894;28;20044;-69
2022/05/02 01:29:27;;;;;;;33.00;24.20;;;;;;;6.31;74.41;99948.47;5080183;28;20033;-68
2022/05/02 01:31:54;;;;;;;24.98;21.40;;;;;;;6.27;74.30;99956.47;5078659;28;20115;-68
2022/05/02 01:34:20;;;;;;;34.58;24.70;;;;;;;6.22;74.62;99954.81;5075506;28;20622;-68
2022/05/02 01:36:46;;;;;;;30.35;24.08;;;;;;;6.27;74.37;99957.31;5075918;28;20070;-69
2022/05/02 01:39:11;;;;;;;30.58;23.70;;;;;;;6.33;74.53;99953.69;5074113;28;20135;-68
2022/05/02 01:41:37;;;;;;;29.40;21.65;;;;;;;6.42;74.58;99951.66;5072692;28;20033;-67
2022/05/02 01:44:02;;;;;;;29.83;22.80;;;;;;;6.45;74.23;99948.09;5072978;28;20040;-67
2022/05/02 01:46:27;;;;;;;27.58;21.70;;;;;;;6.51;73.92;99944.41;5072530;28;20029;-68
2022/05/02 01:48:54;;;;;;;29.08;23.17;;;;;;;6.56;73.76;99943.38;5073066;28;20108;-68
2022/05/02 01:51:20;;;;;;;29.15;22.17;;;;;;;6.56;74.15;99940.75;5072010;28;20118;-69
2022/05/02 01:53:45;;;;;;;34.50;25.88;;;;;;;6.58;74.20;99938.09;5071416;28;20539;-68
2022/05/02 01:56:10;;;;;;;30.73;23.88;;;;;;;6.54;74.46;99937.31;5070080;28;20033;-68
2022/05/02 01:58:36;;;;;;;28.30;23.52;;;;;;;6.60;74.29;99934.53;5071246;28;20040;-68
2022/05/02 02:01:01;;;;;;;34.00;25.60;;;;;;;6.65;73.56;99934.38;5069293;28;20048;-68
2022/05/02 02:03:27;;;;;;;31.60;22.85;;;;;;;6.63;74.21;99926.56;5070850;28;20059;-69
2022/05/02 02:05:52;;;;;;;26.00;20.83;;;;;;;6.66;74.08;99926.47;5070323;28;20055;-68
2022/05/02 02:08:29;;;;;;;29.75;22.70;;;;;;;6.70;74.24;99922.00;5070889;28;20035;-69
2022/05/02 02:10:58;;;;;;;28.98;23.10;;;;;;;6.71;74.36;99931.56;5070393;28;20029;-68
2022/05/02 02:13:23;;;;;;;31.92;22.73;;;;;;;6.75;74.27;99930.56;5070156;28;20036;-68
2022/05/02 02:15:49;;;;;;;28.63;21.45;;;;;;;6.79;74.01;99928.69;5070239;28;20102;-68
2022/05/02 02:18:14;;;;;;;30.83;24.20;;;;;;;6.82;73.77;99928.63;5070430;28;20032;-68
2022/05/02 02:20:43;;;;;;;33.03;23.65;;;;;;;6.79;74.05;99918.22;5086128;28;20044;-68
2022/05/02 02:23:08;;;;;;;26.17;20.70;;;;;;;6.76;74.41;99921.78;5070255;28;20107;-69
2022/05/02 02:25:34;;;;;;;26.88;20.10;;;;;;;6.78;74.54;99922.59;5070305;28;20119;-68
2022/05/02 02:28:00;;;;;;;31.60;20.83;;;;;;;6.81;74.41;99926.91;5070315;28;20040;-69
2022/05/02 02:30:26;;;;;;;32.45;22.77;;;;;;;6.82;74.44;99921.63;5069960;28;20055;-68
2022/05/02 02:32:51;;;;;;;25.35;21.67;;;;;;;6.83;74.76;99927.72;5069904;28;20041;-68
2022/05/02 02:35:20;;;;;;;30.63;22.35;;;;;;;6.86;74.22;99920.59;5070195;28;20638;-68
2022/05/02 02:37:46;;;;;;;28.23;22.92;;;;;;;6.88;74.36;99916.16;5070014;28;20038;-67
2022/05/02 02:40:11;;;;;;;29.90;23.45;;;;;;;6.89;74.37;99922.25;5069940;28;20040;-69
2022/05/02 02:42:38;;;;;;;25.92;19.67;;;;;;;6.85;74.69;99924.13;5070109;28;20032;-69
2022/05/02 02:45:04;;;;;;;29.35;22.60;;;;;;;6.90;74.66;99916.13;5069566;28;20043;-68
2022/05/02 02:47:29;;;;;;;30.02;21.15;;;;;;;6.92;74.42;99905.59;5069521;28;20033;-69
2022/05/02 02:49:54;;;;;;;31.88;23.33;;;;;;;6.92;74.45;99908.22;5069625;28;20479;-69
2022/05/02 02:52:22;;;;;;;26.42;20.90;;;;;;;6.91;74.91;99909.97;5069273;28;20043;-69
2022/05/02 02:54:47;;;;;;;24.05;19.95;;;;;;;6.93;74.79;99905.53;5069736;28;20067;-69
2022/05/02 02:57:13;;;;;;;32.60;22.35;;;;;;;6.93;74.96;99909.94;5069814;28;20456;-69
2022/05/02 02:59:39;;;;;;;25.48;19.77;;;;;;;6.91;75.29;99902.09;5069692;28;20142;-70
2022/05/02 03:02:06;;;;;;;27.58;20.63;;;;;;;6.98;74.82;99900.16;5069021;28;20028;-70
2022/05/02 03:07:15;;;;;;;24.65;20.67;;;;;;;7.03;74.60;99904.31;5069602;28;20079;-68
2022/05/02 03:09:41;;;;;;;27.90;20.48;;;;;;;7.04;74.97;99899.97;5069988;28;20028;-68
2022/05/02 03:12:07;;;;;;;27.35;21.45;;;;;;;7.01;74.95;99903.50;5068958;28;20032;-68
2022/05/02 03:14:32;;;;;;;29.42;22.92;;;;;;;7.01;74.75;99898.28;5069392;28;20124;-67
2022/05/02 03:16:58;;;;;;;28.73;22.70;;;;;;;7.00;74.45;99901.81;5072126;28;20029;-69
2022/05/02 03:19:23;;;;;;;36.13;22.17;;;;;;;7.00;75.33;99895.72;5069639;28;20037;-68
2022/05/02 03:21:48;;;;;;;27.77;19.98;;;;;;;7.03;74.90;99896.47;5069011;28;20029;-68
2022/05/02 03:24:14;;;;;;;25.55;21.63;;;;;;;7.02;75.02;99891.28;5069331;28;20036;-69
2022/05/02 03:26:39;;;;;;;25.13;21.52;;;;;;;7.02;74.69;99893.91;5069958;28;20055;-69
2022/05/02 03:29:04;;;;;;;29.58;21.50;;;;;;;7.01;74.84;99886.94;5069436;28;20036;-68
2022/05/02 03:31:30;;;;;;;25.55;19.42;;;;;;;7.01;74.67;99890.41;5068730;28;20400;-69
2022/05/02 03:33:55;;;;;;;26.98;20.95;;;;;;;7.00;74.75;99885.25;5069347;28;20029;-70
2022/05/02 03:36:20;;;;;;;27.63;23.55;;;;;;;6.98;74.87;99880.03;5069230;28;20105;-70
2022/05/02 03:38:46;;;;;;;27.20;21.48;;;;;;;6.97;75.24;99880.97;5069561;28;20040;-69
2022/05/02 03:41:11;;;;;;;30.27;21.52;;;;;;;6.94;75.44;99881.06;5067614;28;20041;-69
2022/05/02 03:43:36;;;;;;;26.48;20.35;;;;;;;6.92;75.35;99880.25;5069376;28;20036;-69
2022/05/02 03:46:02;;;;;;;26.20;20.40;;;;;;;6.90;75.65;99884.69;5085018;28;20033;-69
2022/05/02 03:48:28;;;;;;;26.35;19.00;;;;;;;6.89;76.17;99888.19;5069614;28;20032;-69
2022/05/02 03:50:53;;;;;;;26.55;21.38;;;;;;;6.87;75.68;99883.03;5069349;28;20124;-71
2022/05/02 03:53:19;;;;;;;28.40;20.40;;;;;;;6.83;76.34;99883.16;5068855;28;20381;-70
2022/05/02 03:55:47;;;;;;;22.77;17.65;;;;;;;6.84;76.19;99888.38;5069436;28;20480;-70
2022/05/02 03:58:13;;;;;;;30.35;24.52;;;;;;;6.90;75.53;99876.81;5071017;28;20152;-69
2022/05/02 04:00:39;;;;;;;30.25;21.27;;;;;;;6.90;75.40;99878.59;5071624;28;20124;-70
2022/05/02 04:03:05;;;;;;;33.33;20.95;;;;;;;6.90;76.05;99882.06;5072757;28;20051;-70
2022/05/02 04:05:30;;;;;;;25.75;22.73;;;;;;;6.91;75.47;99883.75;5073067;28;20044;-70
2022/05/02 04:07:55;;;;;;;26.80;21.60;;;;;;;6.85;75.83;99890.06;5073101;28;20104;-70
2022/05/02 04:10:21;;;;;;;24.65;20.58;;;;;;;6.82;75.94;99887.56;5073483;28;20033;-70
2022/05/02 04:12:47;;;;;;;32.42;23.23;;;;;;;6.88;75.75;99879.47;5073451;28;20055;-70
2022/05/02 04:15:12;;;;;;;31.17;22.70;;;;;;;6.88;75.90;99886.50;5073293;28;20028;-71
2022/05/02 04:17:38;;;;;;;32.35;24.10;;;;;;;6.84;76.63;99896.22;5073950;28;20488;-70
2022/05/02 04:20:05;;;;;;;28.42;22.48;;;;;;;6.92;76.25;99884.66;5072868;28;20033;-70
2022/05/02 04:22:31;;;;;;;25.98;20.88;;;;;;;6.95;75.83;99885.38;5072217;28;20033;-70
2022/05/02 04:24:56;;;;;;;28.52;22.90;;;;;;;6.93;75.78;99884.56;5072816;28;20517;-70
2022/05/02 04:27:21;;;;;;;24.95;19.08;;;;;;;6.95;76.15;99888.00;5072646;28;20496;-70
2022/05/02 04:29:47;;;;;;;33.30;25.58;;;;;;;6.94;75.85;99885.41;5070956;28;20042;-70
2022/05/02 04:32:12;;;;;;;28.42;21.27;;;;;;;6.97;76.31;99885.34;5072155;28;20036;-70
2022/05/02 04:34:38;;;;;;;23.63;20.02;;;;;;;7.02;76.01;99888.66;5072435;28;20507;-70
2022/05/02 04:37:03;;;;;;;49.22;24.08;;;;;;;7.04;75.86;99885.09;5072283;28;20056;-69
2022/05/02 04:39:28;;;;;;;29.58;24.58;;;;;;;7.04;75.84;99886.88;5072516;28;20036;-69
2022/05/02 04:41:54;;;;;;;23.88;19.33;;;;;;;7.10;75.95;99884.03;5071803;28;20047;-69
2022/05/02 04:44:19;;;;;;;28.00;21.52;;;;;;;7.19;75.67;99885.50;5072223;28;20028;-69
2022/05/02 04:46:44;;;;;;;29.02;22.90;;;;;;;7.27;75.09;99888.69;5072022;28;20032;-69
2022/05/02 04:49:10;;;;;;;30.85;22.38;;;;;;;7.30;74.76;99884.19;5072539;28;20111;-70
2022/05/02 04:51:35;;;;;;;29.80;21.42;;;;;;;7.37;74.79;99894.50;5071569;28;20097;-70
2022/05/02 04:54:00;;;;;;;31.17;24.83;;;;;;;7.33;74.99;99893.72;5066768;28;20373;-69
2022/05/02 04:56:26;;;;;;;28.63;22.63;;;;;;;7.35;74.74;99891.06;5067412;28;20523;-69
2022/05/02 04:58:51;;;;;;;25.73;19.13;;;;;;;7.43;74.83;99889.00;5072703;28;20037;-69
2022/05/02 05:01:16;;;;;;;31.02;24.67;;;;;;;7.45;74.37;99889.81;5073710;28;20037;-69
2022/05/02 05:03:42;;;;;;;28.23;22.77;;;;;;;7.48;74.43;99893.22;5074088;28;20024;-69
2022/05/02 05:06:07;;;;;;;32.80;23.15;;;;;;;7.53;74.79;99891.28;5074809;28;20037;-69
2022/05/02 05:08:33;;;;;;;29.40;20.60;;;;;;;7.60;74.99;99901.56;5073246;28;20101;-69
2022/05/02 05:11:29;;;;;;;26.73;20.45;;;;;;;7.68;74.38;99892.50;5074249;28;20119;-68
2022/05/02 05:17:13;;;;;;;26.45;19.45;;;;;;;7.75;74.66;99901.00;5074984;28;20082;-68
2022/05/02 05:20:01;;;;;;;28.85;19.38;;;;;;;7.89;74.40;99896.09;5075812;28;20139;-68
2022/05/02 05:22:45;;;;;;;33.75;25.17;;;;;;;7.96;74.17;99897.59;5073048;28;20028;-69
2022/05/02 05:25:16;;;;;;;31.23;23.25;;;;;;;7.99;74.07;99899.25;5071477;28;20043;-70
2022/05/02 05:28:04;;;;;;;24.70;20.45;;;;;;;8.07;73.37;99891.97;5062100;28;20025;-69
2022/05/02 05:30:37;;;;;;;30.77;20.98;;;;;;;8.16;73.36;99896.00;5071908;28;20077;-69
2022/05/02 05:33:02;;;;;;;26.63;21.75;;;;;;;8.23;72.27;99888.75;5071780;28;20068;-70
2022/05/02 05:35:36;;;;;;;35.25;24.42;;;;;;;8.31;72.36;99889.31;5073827;28;20032;-69
2022/05/02 05:38:09;;;;;;;26.40;21.90;;;;;;;8.31;72.59;99900.69;5070059;28;20041;-70
2022/05/02 05:40:40;;;;;;;28.30;22.52;;;;;;;8.36;72.92;99898.72;5070957;28;20040;-70
2022/05/02 05:43:14;;;;;;;32.28;25.00;;;;;;;8.45;71.80;99900.19;5069783;28;20116;-71
2022/05/02 05:45:56;;;;;;;41.35;24.75;;;;;;;8.51;72.34;99891.19;5071479;28;20039;-71
2022/05/02 05:48:22;;;;;;;32.03;24.70;;;;;;;8.55;72.04;99895.44;5068470;28;20028;-72
2022/05/02 05:51:14;;;;;;;30.05;24.55;;;;;;;8.62;71.48;99896.06;5071134;28;20453;-70
2022/05/02 05:54:05;;;;;;;30.67;24.05;;;;;;;8.73;71.55;99894.69;5070918;28;20086;-70
2022/05/02 05:56:39;;;;;;;28.55;20.70;;;;;;;8.86;71.53;99895.09;5050949;28;20037;-70
2022/05/02 05:59:10;;;;;;;30.70;25.73;;;;;;;9.00;70.84;99894.50;5050711;28;20492;-70
2022/05/02 06:01:49;;;;;;;28.88;23.55;;;;;;;9.11;70.00;99901.97;5061825;28;20044;-71
2022/05/02 06:04:16;;;;;;;28.02;23.55;;;;;;;9.30;68.80;99896.78;5069246;28;20047;-68
2022/05/02 06:06:42;;;;;;;28.08;23.25;;;;;;;9.42;69.15;99899.72;5071003;28;20466;-65
2022/05/02 06:09:10;;;;;;;30.92;24.88;;;;;;;9.51;68.75;99900.28;5086004;28;20123;-67
2022/05/02 06:11:39;;;;;;;29.10;21.70;;;;;;;9.61;67.94;99902.44;5070159;28;20041;-67
2022/05/02 06:14:05;;;;;;;30.50;23.92;;;;;;;9.67;67.75;99898.69;5070734;28;20055;-66
2022/05/02 06:19:24;;;;;;;33.88;25.17;;;;;;;9.93;67.01;99905.44;5070463;28;20676;-66
2022/05/02 06:21:50;;;;;;;34.65;24.98;;;;;;;10.03;66.32;99903.25;5069592;28;20032;-66
2022/05/02 06:24:16;;;;;;;32.13;25.35;;;;;;;10.08;64.69;99902.09;5070374;28;20025;-66
2022/05/02 06:26:43;;;;;;;28.73;22.73;;;;;;;10.12;65.59;99907.25;5070727;28;20047;-65
2022/05/02 06:29:10;;;;;;;34.83;24.42;;;;;;;10.25;64.01;99897.84;5070205;28;20039;-68
2022/05/02 06:31:36;;;;;;;30.48;24.38;;;;;;;10.44;63.44;99897.91;5069719;28;20570;-68
2022/05/02 06:34:03;;;;;;;27.33;24.17;;;;;;;10.56;63.17;99897.31;5069885;28;20177;-67
2022/05/02 06:37:37;;;;;;;27.95;22.02;;;;;;;10.89;61.61;99893.97;5055247;28;20032;-65
2022/05/02 06:40:08;;;;;;;27.92;21.65;;;;;;;11.09;60.98;99895.63;4978202;28;20049;-68
2022/05/02 06:42:48;;;;;;;24.85;21.75;;;;;;;11.13;61.05;99899.84;5061901;28;20074;-67
2022/05/02 06:45:32;;;;;;;31.42;22.95;;;;;;;11.19;60.58;99902.16;5043922;28;20119;-68
2022/05/02 06:48:01;;;;;;;34.47;23.27;;;;;;;11.27;60.30;99902.66;5057721;28;20087;-67
2022/05/02 06:50:31;;;;;;;26.77;22.45;;;;;;;11.34;60.30;99904.03;5058342;28;20056;-68
2022/05/02 06:53:02;;;;;;;28.52;22.83;;;;;;;11.42;59.31;99902.78;5043667;28;20056;-70
2022/05/02 06:55:35;;;;;;;29.80;22.60;;;;;;;11.47;59.82;99900.75;5047069;28;20097;-70
2022/05/02 06:58:00;;;;;;;38.17;24.63;;;;;;;11.57;59.23;99897.59;5063231;28;20532;-70
2022/05/02 07:00:34;;;;;;;31.00;21.85;;;;;;;11.69;59.13;99906.66;5063853;28;20059;-75
2022/05/02 07:03:31;;;;;;;27.45;22.75;;;;;;;11.78;58.72;99900.03;5065649;28;20032;-71
2022/05/02 07:06:08;;;;;;;31.55;25.30;;;;;;;11.87;58.17;99899.59;5064141;28;20146;-71
2022/05/02 07:08:44;;;;;;;33.72;22.85;;;;;;;11.98;57.93;99902.50;5063256;28;20035;-68
2022/05/02 07:11:13;;;;;;;;;;;;;;;12.08;57.21;99900.22;5063962;28;20128;-68
2022/05/02 07:14:02;;;;;;;38.95;22.85;;;;;;;12.19;56.63;99902.31;5062529;28;19927;-69
2022/05/02 07:16:30;;;;;;;40.60;24.08;;;;;;;12.19;57.06;99900.50;5064352;28;20036;-68
2022/05/02 07:19:22;;;;;;;33.25;23.67;;;;;;;12.27;56.32;99908.03;5063609;28;20576;-68
2022/05/02 07:22:07;;;;;;;34.47;20.58;;;;;;;12.21;56.69;99903.94;5063028;28;20032;-70
2022/05/02 07:24:59;;;;;;;30.27;22.15;;;;;;;12.25;56.65;99904.59;5064485;28;20032;-71
2022/05/02 07:27:33;;;;;;;28.15;19.52;;;;;;;12.41;56.80;99904.63;5062976;28;20067;-67
2022/05/02 07:30:00;;;;;;;27.00;19.58;;;;;;;12.54;56.57;99900.38;5063767;28;20119;-71
2022/05/02 07:32:26;;;;;;;29.40;19.30;;;;;;;12.74;55.70;99901.88;5060166;28;20037;-68
2022/05/02 07:34:54;;;;;;;26.25;19.63;;;;;;;12.78;55.25;99903.44;5061999;28;20113;-70
2022/05/02 07:37:23;;;;;;;22.80;19.83;;;;;;;12.90;55.43;99912.47;5058628;28;20422;-65
2022/05/02 07:39:50;;;;;;;28.48;18.77;;;;;;;13.01;54.01;99912.69;5067501;28;20063;-65
2022/05/02 07:42:18;;;;;;;29.58;18.90;;;;;;;13.02;55.22;99906.50;5068852;28;20041;-66
2022/05/02 07:44:46;;;;;;;20.92;18.70;;;;;;;13.10;54.14;99903.41;5066859;28;20457;-66
2022/05/02 07:47:15;;;;;;;33.28;19.33;;;;;;;13.04;55.03;99904.59;5069289;28;20059;-67
2022/05/02 07:49:48;;;;;;;23.65;19.10;;;;;;;13.10;53.98;99906.88;5084944;28;20459;-67
2022/05/02 07:52:19;;;;;;;28.10;20.10;;;;;;;13.22;54.81;99909.78;5084556;28;20043;-64
2022/05/02 07:54:46;;;;;;;26.05;18.60;;;;;;;13.20;54.03;99909.00;5069742;28;20067;-66
2022/05/02 07:57:14;;;;;;;22.83;17.10;;;;;;;13.32;53.63;99910.97;5069749;28;20474;-65
2022/05/02 07:59:41;;;;;;;29.40;20.10;;;;;;;13.40;53.50;99919.31;5070430;28;20048;-65
2022/05/02 08:02:07;;;;;;;24.02;20.00;;;;;;;13.48;53.67;99908.25;5069178;28;20044;-67
2022/05/02 08:04:36;;;;;;;25.83;18.60;;;;;;;13.55;53.54;99911.41;5069744;28;20377;-64
2022/05/02 08:07:12;;;;;;;23.10;17.15;;;;;;;13.69;53.61;99909.63;5070277;28;20028;-67
2022/05/02 08:09:52;;;;;;;;;;;;;;;13.83;53.07;99907.94;5071233;28;20029;-67
2022/05/02 08:12:39;;;;;;;25.65;19.50;;;;;;;14.47;51.48;99901.31;5067767;28;19916;-65
2022/05/02 08:15:11;;;;;;;22.83;17.38;;;;;;;14.93;50.16;99905.47;5072224;28;20040;-69
2022/05/02 08:17:41;;;;;;;26.25;17.38;;;;;;;15.55;49.24;99902.22;5072081;28;20048;-66
2022/05/02 08:20:31;;;;;;;24.88;16.00;;;;;;;15.90;47.66;99905.16;5073173;28;20052;-67
2022/05/02 08:29:11;;;;;;;20.48;13.88;;;;;;;16.38;45.38;99897.34;5074280;28;20071;-65
2022/05/02 08:31:58;;;;;;;28.23;14.77;;;;;;;16.48;45.38;99901.03;5072024;28;20106;-66
2022/05/02 08:34:38;;;;;;;17.90;12.65;;;;;;;16.61;44.37;99902.81;5075254;28;20025;-68
2022/05/02 08:37:18;;;;;;;19.20;12.80;;;;;;;16.73;43.96;99893.94;5077948;28;20032;-66
2022/05/02 08:39:56;;;;;;;20.00;14.02;;;;;;;17.01;43.58;99899.94;5076495;28;20036;-66
2022/05/02 08:42:49;;;;;;;22.30;13.65;;;;;;;17.33;42.77;99895.72;5075200;28;20028;-65
2022/05/02 08:45:52;;;;;;;15.05;12.82;;;;;;;17.63;42.42;99893.50;5081236;28;20055;-66
2022/05/02 08:49:32;;;;;;;16.50;12.50;;;;;;;17.84;40.78;99891.00;5070790;28;20032;-67
2022/05/02 08:52:06;;;;;;;16.08;10.85;;;;;;;17.53;41.52;99890.69;5058938;28;20036;-66
2022/05/02 08:54:53;;;;;;;18.40;11.23;;;;;;;17.46;41.11;99892.09;5074942;28;20416;-65
2022/05/02 08:57:49;;;;;;;15.32;10.80;;;;;;;17.23;41.33;99891.16;5073442;28;20028;-65
2022/05/02 09:00:31;;;;;;;16.88;11.48;;;;;;;17.31;41.60;99892.31;5072191;28;20456;-66
2022/05/02 09:03:05;;;;;;;19.05;10.93;;;;;;;17.34;41.79;99891.22;5070923;28;20443;-68
2022/05/02 09:05:45;;;;;;;15.05;10.55;;;;;;;17.34;41.64;99883.22;5072544;28;20032;-67
2022/05/02 09:08:35;;;;;;;14.60;11.02;;;;;;;17.49;41.57;99886.53;5072726;28;20032;-67
2022/05/02 09:11:10;;;;;;;14.35;10.38;;;;;;;17.68;41.22;99880.66;5071431;28;20276;-67
2022/05/02 09:14:16;;;;;;;16.25;11.77;;;;;;;17.90;40.55;99877.19;5071848;28;20036;-67
2022/05/02 09:16:55;;;;;;;14.98;10.32;;;;;;;18.17;39.82;99874.16;5071633;28;20036;-67
2022/05/02 09:19:27;;;;;;;20.88;11.27;;;;;;;18.68;38.64;99876.28;5072198;28;20039;-67
2022/05/02 09:22:21;;;;;;;12.85;10.52;;;;;;;19.21;37.82;99875.50;5072067;28;20036;-67
2022/05/02 09:25:08;;;;;;;16.38;10.10;;;;;;;19.94;36.25;99874.59;5072396;28;20048;-66
2022/05/02 09:28:19;;;;;;;14.80;11.23;;;;;;;20.61;34.68;99876.84;5071897;28;20124;-68
2022/05/02 09:31:14;;;;;;;18.45;10.75;;;;;;;21.38;32.95;99870.69;5052364;28;20032;-67
2022/05/02 09:33:45;;;;;;;19.70;10.25;;;;;;;22.42;31.43;99868.00;5071872;28;20033;-66
2022/05/02 09:36:29;;;;;;;17.23;11.57;;;;;;;23.05;30.30;99872.56;5072020;28;20028;-67
2022/05/02 09:39:11;;;;;;;13.68;11.55;;;;;;;23.26;29.64;99864.16;5071866;28;20065;-67
2022/05/02 09:41:49;;;;;;;13.45;9.38;;;;;;;23.32;29.43;99867.09;5071082;28;20025;-67
2022/05/02 09:50:31;;;;;;;17.90;12.70;;;;;;;23.50;29.16;99852.75;5071545;28;20047;-67
2022/05/02 09:53:06;;;;;;;13.07;11.77;;;;;;;23.85;28.25;99856.38;5070628;28;20043;-67
2022/05/02 09:58:32;;;;;;;16.08;12.98;;;;;;;23.63;28.67;99852.34;5071744;28;20083;-66
2022/05/02 10:01:26;;;;;;;15.38;13.05;;;;;;;23.96;28.39;99851.56;5071402;28;20492;-66
2022/05/02 10:04:21;;;;;;;16.77;14.98;;;;;;;24.12;27.53;99848.13;5070714;28;20028;-65
2022/05/02 10:06:51;;;;;;;21.83;15.15;;;;;;;24.34;27.38;99844.00;5070610;28;20059;-68
2022/05/02 10:09:17;;;;;;;17.20;13.95;;;;;;;24.53;27.55;99840.19;5069294;28;20055;-65
2022/05/02 10:12:16;;;;;;;20.13;14.73;;;;;;;23.91;28.16;99847.66;5069464;28;20059;-65
2022/05/02 10:15:19;;;;;;;16.42;14.73;;;;;;;23.91;28.65;99848.50;5071392;28;20350;-68
2022/05/02 10:18:08;;;;;;;17.33;14.23;;;;;;;23.43;29.29;99844.47;5068991;28;20032;-68
2022/05/02 10:20:54;;;;;;;16.60;14.27;;;;;;;23.14;30.10;99845.59;5069716;28;20033;-67
2022/05/02 10:23:34;;;;;;;13.10;11.77;;;;;;;23.01;30.50;99841.59;5069679;28;20399;-67
2022/05/02 10:26:25;;;;;;;17.17;15.40;;;;;;;23.53;29.70;99845.22;5070355;28;20042;-67
2022/05/02 10:29:09;;;;;;;16.05;13.43;;;;;;;24.15;29.01;99838.88;5070103;28;20047;-67
2022/05/02 10:31:38;;;;;;;22.58;17.73;;;;;;;23.36;30.02;99830.81;5069697;28;20039;-67
2022/05/02 10:34:04;;;;;;;20.92;16.90;;;;;;;22.12;32.18;99839.56;5069978;28;20109;-67
2022/05/02 10:36:37;;;;;;;18.52;16.25;;;;;;;21.65;32.95;99833.22;5070262;28;20067;-67
2022/05/02 10:39:24;;;;;;;23.10;17.92;;;;;;;21.43;33.11;99838.94;5070895;28;20121;-66
2022/05/02 10:41:56;;;;;;;20.65;15.95;;;;;;;21.30;33.15;99833.84;5069206;28;20032;-67
2022/05/02 10:44:27;;;;;;;14.27;12.85;;;;;;;21.40;33.53;99833.88;5070085;28;20044;-67
2022/05/02 10:47:01;;;;;;;22.83;16.90;;;;;;;21.52;33.01;99821.16;5085487;28;20128;-65
2022/05/02 10:49:50;;;;;;;18.08;15.68;;;;;;;21.77;32.37;99833.06;5070611;28;20045;-64
2022/05/02 10:52:30;;;;;;;18.48;16.08;;;;;;;21.81;32.51;99818.38;5070431;28;20506;-64
2022/05/02 10:55:05;;;;;;;19.80;15.43;;;;;;;21.47;33.40;99826.94;5070237;28;20127;-67
2022/05/02 10:57:50;;;;;;;25.05;16.40;;;;;;;20.96;34.10;99820.03;5070231;28;20115;-66
2022/05/02 11:00:15;;;;;;;19.27;16.45;;;;;;;20.19;35.42;99826.13;5069930;28;20036;-65
2022/05/02 11:02:52;;;;;;;18.58;15.40;;;;;;;20.03;35.73;99829.28;5070087;28;20456;-67
2022/05/02 11:05:26;;;;;;;19.30;15.68;;;;;;;19.99;35.83;99817.19;5069917;28;20032;-66
2022/05/02 11:08:02;;;;;;;19.17;17.23;;;;;;;19.76;35.91;99817.34;5069730;28;20404;-66
2022/05/02 11:10:38;;;;;;;23.83;15.13;;;;;;;19.62;36.40;99810.50;5069846;28;20037;-67
2022/05/02 11:13:09;;;;;;;22.38;14.48;;;;;;;19.71;35.75;99807.06;5070423;28;20044;-65
2022/05/02 11:16:10;;;;;;;20.40;14.73;;;;;;;19.78;35.60;99815.38;5071373;28;20082;-64
2022/05/02 11:21:44;;;;;;;19.50;14.77;;;;;;;19.67;36.37;99813.66;5070150;28;20553;-65
2022/05/02 11:24:32;;;;;;;18.90;15.82;;;;;;;19.52;36.20;99805.09;5071156;28;20515;-65
2022/05/02 11:27:37;;;;;;;17.58;14.10;;;;;;;19.56;35.85;99807.50;5071253;28;20044;-65
2022/05/02 11:30:07;;;;;;;12.38;10.85;;;;;;;19.55;36.38;99808.50;5063991;28;20143;-67
2022/05/02 11:32:37;;;;;;;17.65;15.75;;;;;;;19.57;36.41;99806.53;5071435;28;20025;-68
2022/05/02 11:35:14;;;;;;;17.60;13.40;;;;;;;19.52;36.42;99804.25;5071127;28;20040;-65
2022/05/02 11:37:54;;;;;;;21.05;13.70;;;;;;;19.57;36.31;99803.84;5086437;28;20055;-65
2022/05/02 11:40:26;;;;;;;18.00;12.65;;;;;;;19.83;36.33;99805.13;5069957;28;20071;-65
2022/05/02 11:42:52;;;;;;;20.15;16.00;;;;;;;19.20;37.02;99804.34;5069284;28;20045;-65
2022/05/02 11:45:18;;;;;;;15.55;12.10;;;;;;;19.08;37.27;99803.53;5070838;28;20107;-65
2022/05/02 11:48:15;;;;;;;33.10;16.90;;;;;;;19.13;36.94;99809.34;5070411;28;20353;-66
2022/05/02 11:50:44;;;;;;;23.05;15.85;;;;;;;19.06;37.31;99809.00;5070441;28;20051;-66
2022/05/02 11:53:13;;;;;;;20.48;15.07;;;;;;;18.97;37.72;99801.75;5068821;28;20459;-67
2022/05/02 11:55:40;;;;;;;15.18;13.57;;;;;;;19.03;37.12;99793.25;5070483;28;20029;-64
2022/05/02 11:58:30;;;;;;;19.77;14.45;;;;;;;19.19;37.49;99797.28;5069101;28;20058;-66
2022/05/02 12:01:02;;;;;;;22.52;14.45;;;;;;;19.22;36.88;99789.88;5069014;28;20442;-67
2022/05/02 12:03:54;;;;;;;15.27;12.90;;;;;;;19.49;36.89;99785.78;5068589;28;20028;-66
2022/05/02 12:06:31;;;;;;;29.52;14.50;;;;;;;19.44;36.78;99780.84;5068584;28;20039;-67
2022/05/02 12:09:03;;;;;;;26.10;15.70;;;;;;;19.08;37.57;99782.16;5068838;28;20488;-66
2022/05/02 12:11:29;;;;;;;19.15;14.90;;;;;;;18.89;37.12;99788.22;5069335;28;20024;-66
2022/05/02 12:13:55;;;;;;;18.15;12.98;;;;;;;18.94;37.60;99782.47;5069833;28;20035;-65